sensor_id;sensor_type;location;lat;lon;timestamp;temperature;humidity
7666;DHT22;3875;46.562;4.898;2023-03-01T00:01:23;0.40;82.40
7666;DHT22;3875;46.562;4.898;2023-03-01T00:03:50;0.40;82.40
7666;DHT22;3875;46.562;4.898;2023-03-01T00:06:16;0.30;82.40
7666;DHT22;3875;46.562;4.898;2023-03-01T00:08:41;0.30;82.50
7666;DHT22;3875;46.562;4.898;2023-03-01T00:11:13;0.30;82.50
7666;DHT22;3875;46.562;4.898;2023-03-01T00:13:39;0.30;82.70
7666;DHT22;3875;46.562;4.898;2023-03-01T00:16:08;0.30;82.80
7666;DHT22;3875;46.562;4.898;2023-03-01T00:18:34;0.30;82.60
7666;DHT22;3875;46.562;4.898;2023-03-01T00:21:00;0.20;82.70
7666;DHT22;3875;46.562;4.898;2023-03-01T00:23:26;0.20;82.60
7666;DHT22;3875;46.562;4.898;2023-03-01T00:25:52;0.20;82.40
7666;DHT22;3875;46.562;4.898;2023-03-01T00:28:18;0.20;82.50
7666;DHT22;3875;46.562;4.898;2023-03-01T00:30:45;0.20;82.40
7666;DHT22;3875;46.562;4.898;2023-03-01T00:33:11;0.20;82.50
7666;DHT22;3875;46.562;4.898;2023-03-01T00:35:37;0.20;82.40
7666;DHT22;3875;46.562;4.898;2023-03-01T00:38:03;0.20;82.50
7666;DHT22;3875;46.562;4.898;2023-03-01T00:40:31;0.10;82.70
7666;DHT22;3875;46.562;4.898;2023-03-01T00:42:57;0.10;82.70
7666;DHT22;3875;46.562;4.898;2023-03-01T00:45:22;0.10;82.90
7666;DHT22;3875;46.562;4.898;2023-03-01T00:47:49;0.10;82.90
7666;DHT22;3875;46.562;4.898;2023-03-01T00:50:15;0.10;82.70
7666;DHT22;3875;46.562;4.898;2023-03-01T00:52:40;0.10;82.50
7666;DHT22;3875;46.562;4.898;2023-03-01T00:55:07;0.10;82.60
7666;DHT22;3875;46.562;4.898;2023-03-01T00:57:32;0.10;82.50
7666;DHT22;3875;46.562;4.898;2023-03-01T00:59:59;0.10;82.40
7666;DHT22;3875;46.562;4.898;2023-03-01T01:02:24;0.00;82.60
7666;DHT22;3875;46.562;4.898;2023-03-01T01:04:50;0.00;82.60
7666;DHT22;3875;46.562;4.898;2023-03-01T01:07:16;0.00;82.90
7666;DHT22;3875;46.562;4.898;2023-03-01T01:09:42;0.00;82.70
7666;DHT22;3875;46.562;4.898;2023-03-01T01:12:08;0.00;82.70
7666;DHT22;3875;46.562;4.898;2023-03-01T01:14:34;0.00;82.60
7666;DHT22;3875;46.562;4.898;2023-03-01T01:17:00;0.00;82.70
7666;DHT22;3875;46.562;4.898;2023-03-01T01:19:27;-0.10;82.80
7666;DHT22;3875;46.562;4.898;2023-03-01T01:21:53;-0.10;83.00
7666;DHT22;3875;46.562;4.898;2023-03-01T01:24:19;-0.10;82.80
7666;DHT22;3875;46.562;4.898;2023-03-01T01:26:45;-0.10;82.60
7666;DHT22;3875;46.562;4.898;2023-03-01T01:29:11;-0.10;82.50
7666;DHT22;3875;46.562;4.898;2023-03-01T01:31:38;-0.10;82.70
7666;DHT22;3875;46.562;4.898;2023-03-01T01:34:07;-0.10;82.80
7666;DHT22;3875;46.562;4.898;2023-03-01T01:36:35;-0.10;82.50
7666;DHT22;3875;46.562;4.898;2023-03-01T01:39:01;-0.10;82.80
7666;DHT22;3875;46.562;4.898;2023-03-01T01:41:28;-0.10;82.70
7666;DHT22;3875;46.562;4.898;2023-03-01T01:46:50;-0.20;82.40
7666;DHT22;3875;46.562;4.898;2023-03-01T01:52:17;-0.20;82.50
7666;DHT22;3875;46.562;4.898;2023-03-01T01:54:54;-0.20;82.70
7666;DHT22;3875;46.562;4.898;2023-03-01T01:57:27;-0.20;82.50
7666;DHT22;3875;46.562;4.898;2023-03-01T01:59:58;-0.20;82.40
7666;DHT22;3875;46.562;4.898;2023-03-01T02:02:24;-0.20;82.30
7666;DHT22;3875;46.562;4.898;2023-03-01T02:04:55;-0.20;82.50
7666;DHT22;3875;46.562;4.898;2023-03-01T02:07:24;-0.20;82.40
7666;DHT22;3875;46.562;4.898;2023-03-01T02:09:52;-0.20;82.20
7666;DHT22;3875;46.562;4.898;2023-03-01T02:12:21;-0.20;82.10
7666;DHT22;3875;46.562;4.898;2023-03-01T02:14:48;-0.20;82.10
7666;DHT22;3875;46.562;4.898;2023-03-01T02:17:16;-0.30;82.30
7666;DHT22;3875;46.562;4.898;2023-03-01T02:22:20;-0.30;82.20
7666;DHT22;3875;46.562;4.898;2023-03-01T02:27:17;-0.30;82.30
7666;DHT22;3875;46.562;4.898;2023-03-01T02:29:43;-0.30;82.40
7666;DHT22;3875;46.562;4.898;2023-03-01T02:32:11;-0.40;82.90
7666;DHT22;3875;46.562;4.898;2023-03-01T02:34:38;-0.40;83.20
7666;DHT22;3875;46.562;4.898;2023-03-01T02:37:10;-0.50;83.10
7666;DHT22;3875;46.562;4.898;2023-03-01T02:39:46;-0.50;82.90
7666;DHT22;3875;46.562;4.898;2023-03-01T02:42:21;-0.50;82.80
7666;DHT22;3875;46.562;4.898;2023-03-01T02:44:49;-0.50;82.90
7666;DHT22;3875;46.562;4.898;2023-03-01T02:47:15;-0.50;82.90
7666;DHT22;3875;46.562;4.898;2023-03-01T02:49:40;-0.50;83.20
7666;DHT22;3875;46.562;4.898;2023-03-01T02:55:11;-0.50;83.10
7666;DHT22;3875;46.562;4.898;2023-03-01T02:57:40;-0.60;83.30
7666;DHT22;3875;46.562;4.898;2023-03-01T03:00:10;-0.60;83.50
7666;DHT22;3875;46.562;4.898;2023-03-01T03:02:45;-0.60;83.40
7666;DHT22;3875;46.562;4.898;2023-03-01T03:05:17;-0.60;83.30
7666;DHT22;3875;46.562;4.898;2023-03-01T03:07:44;-0.60;83.30
7666;DHT22;3875;46.562;4.898;2023-03-01T03:10:14;-0.70;83.30
7666;DHT22;3875;46.562;4.898;2023-03-01T03:12:40;-0.70;83.40
7666;DHT22;3875;46.562;4.898;2023-03-01T03:15:06;-0.70;83.30
7666;DHT22;3875;46.562;4.898;2023-03-01T03:17:36;-0.70;83.30
7666;DHT22;3875;46.562;4.898;2023-03-01T03:20:04;-0.70;83.30
7666;DHT22;3875;46.562;4.898;2023-03-01T03:22:31;-0.70;83.40
7666;DHT22;3875;46.562;4.898;2023-03-01T03:24:59;-0.70;83.40
7666;DHT22;3875;46.562;4.898;2023-03-01T03:27:25;-0.80;83.80
7666;DHT22;3875;46.562;4.898;2023-03-01T03:29:50;-0.80;83.70
7666;DHT22;3875;46.562;4.898;2023-03-01T03:32:16;-0.80;83.70
7666;DHT22;3875;46.562;4.898;2023-03-01T03:34:42;-0.80;84.00
7666;DHT22;3875;46.562;4.898;2023-03-01T03:37:07;-0.90;84.00
7666;DHT22;3875;46.562;4.898;2023-03-01T03:39:53;-0.90;84.10
7666;DHT22;3875;46.562;4.898;2023-03-01T03:42:21;-0.90;84.20
7666;DHT22;3875;46.562;4.898;2023-03-01T03:44:47;-0.90;84.40
7666;DHT22;3875;46.562;4.898;2023-03-01T03:47:13;-0.90;84.40
7666;DHT22;3875;46.562;4.898;2023-03-01T03:49:39;-0.90;84.40
7666;DHT22;3875;46.562;4.898;2023-03-01T03:52:04;-0.90;84.70
7666;DHT22;3875;46.562;4.898;2023-03-01T03:54:30;-0.90;84.80
7666;DHT22;3875;46.562;4.898;2023-03-01T03:56:56;-0.90;84.40
7666;DHT22;3875;46.562;4.898;2023-03-01T03:59:21;-0.90;84.30
7666;DHT22;3875;46.562;4.898;2023-03-01T04:01:47;-0.90;84.40
7666;DHT22;3875;46.562;4.898;2023-03-01T04:04:12;-0.90;84.10
7666;DHT22;3875;46.562;4.898;2023-03-01T04:06:38;-0.90;84.00
7666;DHT22;3875;46.562;4.898;2023-03-01T04:09:04;-0.90;83.90
7666;DHT22;3875;46.562;4.898;2023-03-01T04:11:30;-0.90;83.90
7666;DHT22;3875;46.562;4.898;2023-03-01T04:13:57;-0.90;84.20
7666;DHT22;3875;46.562;4.898;2023-03-01T04:16:24;-1.00;84.40
7666;DHT22;3875;46.562;4.898;2023-03-01T04:18:50;-1.00;84.70
7666;DHT22;3875;46.562;4.898;2023-03-01T04:21:17;-1.00;84.50
7666;DHT22;3875;46.562;4.898;2023-03-01T04:23:45;-1.00;84.80
7666;DHT22;3875;46.562;4.898;2023-03-01T04:26:11;-1.00;85.20
7666;DHT22;3875;46.562;4.898;2023-03-01T04:28:39;-1.10;85.30
7666;DHT22;3875;46.562;4.898;2023-03-01T04:31:14;-1.10;85.20
7666;DHT22;3875;46.562;4.898;2023-03-01T04:33:54;-1.10;85.30
7666;DHT22;3875;46.562;4.898;2023-03-01T04:36:23;-1.10;85.10
7666;DHT22;3875;46.562;4.898;2023-03-01T04:38:49;-1.10;84.90
7666;DHT22;3875;46.562;4.898;2023-03-01T04:41:16;-1.10;84.70
7666;DHT22;3875;46.562;4.898;2023-03-01T04:43:42;-1.10;85.00
7666;DHT22;3875;46.562;4.898;2023-03-01T04:46:13;-1.10;85.50
7666;DHT22;3875;46.562;4.898;2023-03-01T04:48:40;-1.10;85.70
7666;DHT22;3875;46.562;4.898;2023-03-01T04:51:07;-1.20;85.90
7666;DHT22;3875;46.562;4.898;2023-03-01T04:53:34;-1.10;85.70
7666;DHT22;3875;46.562;4.898;2023-03-01T04:56:02;-1.10;86.00
7666;DHT22;3875;46.562;4.898;2023-03-01T04:58:28;-1.10;85.60
7666;DHT22;3875;46.562;4.898;2023-03-01T05:00:54;-1.10;85.60
7666;DHT22;3875;46.562;4.898;2023-03-01T05:03:20;-1.10;85.60
7666;DHT22;3875;46.562;4.898;2023-03-01T05:05:48;-1.10;85.60
7666;DHT22;3875;46.562;4.898;2023-03-01T05:08:15;-1.10;85.90
7666;DHT22;3875;46.562;4.898;2023-03-01T05:10:48;-1.20;85.90
7666;DHT22;3875;46.562;4.898;2023-03-01T05:13:14;-1.20;85.90
7666;DHT22;3875;46.562;4.898;2023-03-01T05:15:58;-1.20;85.60
7666;DHT22;3875;46.562;4.898;2023-03-01T05:18:24;-1.20;85.50
7666;DHT22;3875;46.562;4.898;2023-03-01T05:20:54;-1.20;85.60
7666;DHT22;3875;46.562;4.898;2023-03-01T05:23:22;-1.20;85.70
7666;DHT22;3875;46.562;4.898;2023-03-01T05:25:48;-1.20;85.90
7666;DHT22;3875;46.562;4.898;2023-03-01T05:28:15;-1.20;86.10
7666;DHT22;3875;46.562;4.898;2023-03-01T05:30:41;-1.30;86.20
7666;DHT22;3875;46.562;4.898;2023-03-01T05:33:08;-1.30;86.10
7666;DHT22;3875;46.562;4.898;2023-03-01T05:35:42;-1.30;86.20
7666;DHT22;3875;46.562;4.898;2023-03-01T05:38:09;-1.30;86.10
7666;DHT22;3875;46.562;4.898;2023-03-01T05:40:39;-1.30;86.00
7666;DHT22;3875;46.562;4.898;2023-03-01T05:43:05;-1.30;85.80
7666;DHT22;3875;46.562;4.898;2023-03-01T05:45:31;-1.30;85.90
7666;DHT22;3875;46.562;4.898;2023-03-01T05:47:58;-1.30;85.90
7666;DHT22;3875;46.562;4.898;2023-03-01T05:50:26;-1.30;85.90
7666;DHT22;3875;46.562;4.898;2023-03-01T05:55:22;-1.30;85.90
7666;DHT22;3875;46.562;4.898;2023-03-01T05:57:48;-1.30;85.80
7666;DHT22;3875;46.562;4.898;2023-03-01T06:00:15;-1.30;85.90
7666;DHT22;3875;46.562;4.898;2023-03-01T06:02:41;-1.30;85.70
7666;DHT22;3875;46.562;4.898;2023-03-01T06:05:09;-1.40;86.10
7666;DHT22;3875;46.562;4.898;2023-03-01T06:07:35;-1.40;86.60
7666;DHT22;3875;46.562;4.898;2023-03-01T06:10:02;-1.40;86.70
7666;DHT22;3875;46.562;4.898;2023-03-01T06:12:33;-1.40;86.60
7666;DHT22;3875;46.562;4.898;2023-03-01T06:15:00;-1.40;86.50
7666;DHT22;3875;46.562;4.898;2023-03-01T06:17:29;-1.40;86.70
7666;DHT22;3875;46.562;4.898;2023-03-01T06:19:55;-1.40;86.70
7666;DHT22;3875;46.562;4.898;2023-03-01T06:22:21;-1.40;86.60
7666;DHT22;3875;46.562;4.898;2023-03-01T06:24:47;-1.40;86.80
7666;DHT22;3875;46.562;4.898;2023-03-01T06:27:12;-1.40;86.70
7666;DHT22;3875;46.562;4.898;2023-03-01T06:29:38;-1.40;86.70
7666;DHT22;3875;46.562;4.898;2023-03-01T06:32:04;-1.40;86.60
7666;DHT22;3875;46.562;4.898;2023-03-01T06:34:30;-1.30;86.40
7666;DHT22;3875;46.562;4.898;2023-03-01T06:36:56;-1.30;86.00
7666;DHT22;3875;46.562;4.898;2023-03-01T06:39:21;-1.30;85.90
7666;DHT22;3875;46.562;4.898;2023-03-01T06:41:47;-1.30;85.90
7666;DHT22;3875;46.562;4.898;2023-03-01T06:44:12;-1.30;85.70
7666;DHT22;3875;46.562;4.898;2023-03-01T06:46:39;-1.20;85.60
7666;DHT22;3875;46.562;4.898;2023-03-01T06:49:05;-1.20;85.80
7666;DHT22;3875;46.562;4.898;2023-03-01T06:51:37;-1.10;85.50
7666;DHT22;3875;46.562;4.898;2023-03-01T06:54:04;-1.10;85.40
7666;DHT22;3875;46.562;4.898;2023-03-01T06:56:31;-1.00;85.30
7666;DHT22;3875;46.562;4.898;2023-03-01T06:58:57;-1.00;85.20
7666;DHT22;3875;46.562;4.898;2023-03-01T07:01:23;-0.90;85.00
7666;DHT22;3875;46.562;4.898;2023-03-01T07:03:48;-0.80;85.00
7666;DHT22;3875;46.562;4.898;2023-03-01T07:06:14;-0.80;84.90
7666;DHT22;3875;46.562;4.898;2023-03-01T07:08:39;-0.70;84.80
7666;DHT22;3875;46.562;4.898;2023-03-01T07:11:05;-0.70;84.90
7666;DHT22;3875;46.562;4.898;2023-03-01T07:13:31;-0.60;84.90
7666;DHT22;3875;46.562;4.898;2023-03-01T07:15:57;-0.60;84.90
7666;DHT22;3875;46.562;4.898;2023-03-01T07:18:23;-0.50;84.80
7666;DHT22;3875;46.562;4.898;2023-03-01T07:20:48;-0.30;84.50
7666;DHT22;3875;46.562;4.898;2023-03-01T07:23:14;-0.30;84.30
7666;DHT22;3875;46.562;4.898;2023-03-01T07:25:40;-0.20;84.10
7666;DHT22;3875;46.562;4.898;2023-03-01T07:28:06;-0.10;84.00
7666;DHT22;3875;46.562;4.898;2023-03-01T07:30:32;-0.10;84.00
7666;DHT22;3875;46.562;4.898;2023-03-01T07:32:58;0.00;84.10
7666;DHT22;3875;46.562;4.898;2023-03-01T07:35:27;0.00;83.80
7666;DHT22;3875;46.562;4.898;2023-03-01T07:37:53;0.10;83.80
7666;DHT22;3875;46.562;4.898;2023-03-01T07:40:19;0.20;83.90
7666;DHT22;3875;46.562;4.898;2023-03-01T07:42:45;0.30;83.70
7666;DHT22;3875;46.562;4.898;2023-03-01T07:45:11;0.30;83.70
7666;DHT22;3875;46.562;4.898;2023-03-01T07:47:39;0.30;83.50
7666;DHT22;3875;46.562;4.898;2023-03-01T07:50:04;0.40;83.50
7666;DHT22;3875;46.562;4.898;2023-03-01T07:52:30;0.50;83.50
7666;DHT22;3875;46.562;4.898;2023-03-01T07:54:56;0.60;83.30
7666;DHT22;3875;46.562;4.898;2023-03-01T07:57:23;0.70;83.10
7666;DHT22;3875;46.562;4.898;2023-03-01T07:59:48;0.80;82.60
7666;DHT22;3875;46.562;4.898;2023-03-01T08:02:14;0.80;82.60
7666;DHT22;3875;46.562;4.898;2023-03-01T08:04:41;0.90;82.60
7666;DHT22;3875;46.562;4.898;2023-03-01T08:07:06;1.00;82.10
7666;DHT22;3875;46.562;4.898;2023-03-01T08:09:35;1.20;82.20
7666;DHT22;3875;46.562;4.898;2023-03-01T08:12:02;1.30;81.50
7666;DHT22;3875;46.562;4.898;2023-03-01T08:14:30;1.30;81.50
7666;DHT22;3875;46.562;4.898;2023-03-01T08:16:56;1.40;81.50
7666;DHT22;3875;46.562;4.898;2023-03-01T08:19:22;1.40;81.20
7666;DHT22;3875;46.562;4.898;2023-03-01T08:21:48;1.50;81.20
7666;DHT22;3875;46.562;4.898;2023-03-01T08:24:14;1.50;80.90
7666;DHT22;3875;46.562;4.898;2023-03-01T08:26:40;1.40;80.90
7666;DHT22;3875;46.562;4.898;2023-03-01T08:29:06;1.40;81.10
7666;DHT22;3875;46.562;4.898;2023-03-01T08:31:37;1.50;81.50
7666;DHT22;3875;46.562;4.898;2023-03-01T08:34:15;1.60;80.90
7666;DHT22;3875;46.562;4.898;2023-03-01T08:36:43;1.70;81.00
7666;DHT22;3875;46.562;4.898;2023-03-01T08:39:11;1.80;81.00
7666;DHT22;3875;46.562;4.898;2023-03-01T08:41:37;1.90;80.20
7666;DHT22;3875;46.562;4.898;2023-03-01T08:44:04;1.90;79.90
7666;DHT22;3875;46.562;4.898;2023-03-01T08:46:35;2.10;80.50
7666;DHT22;3875;46.562;4.898;2023-03-01T08:49:07;2.20;79.20
7666;DHT22;3875;46.562;4.898;2023-03-01T08:51:34;2.30;79.70
7666;DHT22;3875;46.562;4.898;2023-03-01T08:54:03;2.30;79.50
7666;DHT22;3875;46.562;4.898;2023-03-01T08:56:29;2.40;79.90
7666;DHT22;3875;46.562;4.898;2023-03-01T08:58:55;2.40;79.20
7666;DHT22;3875;46.562;4.898;2023-03-01T09:01:20;2.40;79.40
7666;DHT22;3875;46.562;4.898;2023-03-01T09:03:46;2.60;80.00
7666;DHT22;3875;46.562;4.898;2023-03-01T09:06:12;2.70;78.90
7666;DHT22;3875;46.562;4.898;2023-03-01T09:08:46;2.70;78.40
7666;DHT22;3875;46.562;4.898;2023-03-01T09:11:14;2.70;79.00
7666;DHT22;3875;46.562;4.898;2023-03-01T09:13:41;2.90;78.40
7666;DHT22;3875;46.562;4.898;2023-03-01T09:16:08;2.90;77.80
7666;DHT22;3875;46.562;4.898;2023-03-01T09:18:35;2.90;78.20
7666;DHT22;3875;46.562;4.898;2023-03-01T09:21:22;3.00;77.90
7666;DHT22;3875;46.562;4.898;2023-03-01T09:23:49;3.00;77.70
7666;DHT22;3875;46.562;4.898;2023-03-01T09:26:20;3.10;77.70
7666;DHT22;3875;46.562;4.898;2023-03-01T09:28:48;3.20;77.20
7666;DHT22;3875;46.562;4.898;2023-03-01T09:31:16;3.20;77.20
7666;DHT22;3875;46.562;4.898;2023-03-01T09:33:44;3.40;77.60
7666;DHT22;3875;46.562;4.898;2023-03-01T09:36:13;3.50;76.80
7666;DHT22;3875;46.562;4.898;2023-03-01T09:38:39;3.80;77.30
7666;DHT22;3875;46.562;4.898;2023-03-01T09:46:48;4.10;75.00
7666;DHT22;3875;46.562;4.898;2023-03-01T09:49:24;4.10;74.80
7666;DHT22;3875;46.562;4.898;2023-03-01T09:54:44;4.10;76.00
7666;DHT22;3875;46.562;4.898;2023-03-01T10:00:22;4.60;74.70
7666;DHT22;3875;46.562;4.898;2023-03-01T10:10:54;4.90;73.50
7666;DHT22;3875;46.562;4.898;2023-03-01T10:16:22;5.10;72.70
7666;DHT22;3875;46.562;4.898;2023-03-01T10:18:55;5.20;72.20
7666;DHT22;3875;46.562;4.898;2023-03-01T10:21:22;5.10;72.20
7666;DHT22;3875;46.562;4.898;2023-03-01T10:23:50;5.20;73.10
7666;DHT22;3875;46.562;4.898;2023-03-01T10:26:44;5.50;72.30
7666;DHT22;3875;46.562;4.898;2023-03-01T10:29:13;5.70;71.30
7666;DHT22;3875;46.562;4.898;2023-03-01T10:31:47;5.80;71.70
7666;DHT22;3875;46.562;4.898;2023-03-01T10:36:55;6.10;70.40
7666;DHT22;3875;46.562;4.898;2023-03-01T10:39:24;6.20;70.80
7666;DHT22;3875;46.562;4.898;2023-03-01T10:41:56;6.30;70.00
7666;DHT22;3875;46.562;4.898;2023-03-01T10:44:41;6.30;70.20
7666;DHT22;3875;46.562;4.898;2023-03-01T10:50:03;6.80;70.30
7666;DHT22;3875;46.562;4.898;2023-03-01T10:52:40;7.30;68.80
7666;DHT22;3875;46.562;4.898;2023-03-01T10:57:39;7.10;68.40
7666;DHT22;3875;46.562;4.898;2023-03-01T11:00:17;7.20;69.00
7666;DHT22;3875;46.562;4.898;2023-03-01T11:02:50;7.50;68.40
7666;DHT22;3875;46.562;4.898;2023-03-01T11:05:21;7.60;67.70
7666;DHT22;3875;46.562;4.898;2023-03-01T11:10:31;7.10;67.40
7666;DHT22;3875;46.562;4.898;2023-03-01T11:13:17;6.80;68.20
7666;DHT22;3875;46.562;4.898;2023-03-01T11:16:03;6.90;69.30
7666;DHT22;3875;46.562;4.898;2023-03-01T11:18:31;7.10;68.00
7666;DHT22;3875;46.562;4.898;2023-03-01T11:20:58;7.00;68.30
7666;DHT22;3875;46.562;4.898;2023-03-01T11:23:25;7.30;69.60
7666;DHT22;3875;46.562;4.898;2023-03-01T11:26:01;8.00;68.90
7666;DHT22;3875;46.562;4.898;2023-03-01T11:28:29;8.10;65.70
7666;DHT22;3875;46.562;4.898;2023-03-01T11:31:02;7.80;66.30
7666;DHT22;3875;46.562;4.898;2023-03-01T11:36:07;7.60;67.50
7666;DHT22;3875;46.562;4.898;2023-03-01T11:38:38;7.70;67.20
7666;DHT22;3875;46.562;4.898;2023-03-01T11:41:19;7.70;66.80
7666;DHT22;3875;46.562;4.898;2023-03-01T11:46:31;7.40;67.40
7666;DHT22;3875;46.562;4.898;2023-03-01T12:00:25;7.20;68.70
7666;DHT22;3875;46.562;4.898;2023-03-01T12:11:35;8.20;66.10
7666;DHT22;3875;46.562;4.898;2023-03-01T12:22:20;8.00;65.90
7666;DHT22;3875;46.562;4.898;2023-03-01T12:25:34;7.90;67.10
7666;DHT22;3875;46.562;4.898;2023-03-01T12:41:51;9.20;64.00
7666;DHT22;3875;46.562;4.898;2023-03-01T12:48:01;9.30;64.70
7666;DHT22;3875;46.562;4.898;2023-03-01T12:50:51;9.20;64.70
7666;DHT22;3875;46.562;4.898;2023-03-01T12:55:49;8.30;65.30
7666;DHT22;3875;46.562;4.898;2023-03-01T12:58:39;8.00;66.30
7666;DHT22;3875;46.562;4.898;2023-03-01T13:04:37;7.90;67.60
7666;DHT22;3875;46.562;4.898;2023-03-01T13:07:30;8.00;66.90
7666;DHT22;3875;46.562;4.898;2023-03-01T13:10:08;8.00;66.90
7666;DHT22;3875;46.562;4.898;2023-03-01T13:15:25;7.90;67.10
7666;DHT22;3875;46.562;4.898;2023-03-01T13:20:22;8.10;67.60
7666;DHT22;3875;46.562;4.898;2023-03-01T13:23:07;8.00;66.50
7666;DHT22;3875;46.562;4.898;2023-03-01T13:25:34;7.90;67.50
7666;DHT22;3875;46.562;4.898;2023-03-01T13:31:02;7.60;67.40
7666;DHT22;3875;46.562;4.898;2023-03-01T13:35:58;7.30;68.40
7666;DHT22;3875;46.562;4.898;2023-03-01T13:38:38;7.30;68.80
7666;DHT22;3875;46.562;4.898;2023-03-01T13:41:10;7.40;68.20
7666;DHT22;3875;46.562;4.898;2023-03-01T13:43:38;7.30;68.40
7666;DHT22;3875;46.562;4.898;2023-03-01T13:46:23;7.30;68.40
7666;DHT22;3875;46.562;4.898;2023-03-01T13:48:55;7.10;68.60
7666;DHT22;3875;46.562;4.898;2023-03-01T13:51:26;7.10;68.70
7666;DHT22;3875;46.562;4.898;2023-03-01T13:53:53;7.20;69.30
7666;DHT22;3875;46.562;4.898;2023-03-01T13:56:25;7.20;68.70
7666;DHT22;3875;46.562;4.898;2023-03-01T13:58:52;7.10;68.60
7666;DHT22;3875;46.562;4.898;2023-03-01T14:03:49;7.10;69.90
7666;DHT22;3875;46.562;4.898;2023-03-01T14:06:18;7.20;69.40
7666;DHT22;3875;46.562;4.898;2023-03-01T14:08:46;7.20;69.00
7666;DHT22;3875;46.562;4.898;2023-03-01T14:11:55;7.10;69.00
7666;DHT22;3875;46.562;4.898;2023-03-01T14:14:44;7.00;68.90
7666;DHT22;3875;46.562;4.898;2023-03-01T14:22:36;6.90;69.30
7666;DHT22;3875;46.562;4.898;2023-03-01T14:25:27;6.90;70.00
7666;DHT22;3875;46.562;4.898;2023-03-01T14:30:51;6.90;69.60
7666;DHT22;3875;46.562;4.898;2023-03-01T14:33:28;6.80;69.80
7666;DHT22;3875;46.562;4.898;2023-03-01T14:38:54;6.80;70.20
7666;DHT22;3875;46.562;4.898;2023-03-01T14:41:22;6.80;70.30
7666;DHT22;3875;46.562;4.898;2023-03-01T14:43:55;6.80;70.30
7666;DHT22;3875;46.562;4.898;2023-03-01T14:46:31;6.60;70.30
7666;DHT22;3875;46.562;4.898;2023-03-01T14:51:42;6.50;70.80
7666;DHT22;3875;46.562;4.898;2023-03-01T14:55:05;6.50;70.70
7666;DHT22;3875;46.562;4.898;2023-03-01T14:57:14;6.40;71.20
7666;DHT22;3875;46.562;4.898;2023-03-01T14:59:41;6.30;71.20
7666;DHT22;3875;46.562;4.898;2023-03-01T15:02:15;6.30;71.20
7666;DHT22;3875;46.562;4.898;2023-03-01T15:04:52;6.30;71.30
7666;DHT22;3875;46.562;4.898;2023-03-01T15:07:23;6.30;71.40
7666;DHT22;3875;46.562;4.898;2023-03-01T15:09:51;6.30;71.70
7666;DHT22;3875;46.562;4.898;2023-03-01T15:12:36;6.20;71.60
7666;DHT22;3875;46.562;4.898;2023-03-01T15:18:00;6.10;71.90
7666;DHT22;3875;46.562;4.898;2023-03-01T15:20:28;6.00;71.80
7666;DHT22;3875;46.562;4.898;2023-03-01T15:22:57;6.00;71.60
7666;DHT22;3875;46.562;4.898;2023-03-01T15:25:25;6.00;72.10
7666;DHT22;3875;46.562;4.898;2023-03-01T15:27:54;5.90;72.50
7666;DHT22;3875;46.562;4.898;2023-03-01T15:30:33;6.00;72.00
7666;DHT22;3875;46.562;4.898;2023-03-01T15:35:51;5.90;71.80
7666;DHT22;3875;46.562;4.898;2023-03-01T15:38:28;5.90;72.30
7666;DHT22;3875;46.562;4.898;2023-03-01T15:40:54;5.80;71.90
7666;DHT22;3875;46.562;4.898;2023-03-01T15:43:46;5.80;72.00
7666;DHT22;3875;46.562;4.898;2023-03-01T15:46:19;5.70;72.30
7666;DHT22;3875;46.562;4.898;2023-03-01T15:48:49;5.70;72.60
7666;DHT22;3875;46.562;4.898;2023-03-01T15:51:20;5.70;72.80
7666;DHT22;3875;46.562;4.898;2023-03-01T15:53:51;5.80;72.90
7666;DHT22;3875;46.562;4.898;2023-03-01T15:56:18;5.80;72.40
7666;DHT22;3875;46.562;4.898;2023-03-01T15:58:44;5.70;72.30
7666;DHT22;3875;46.562;4.898;2023-03-01T16:01:14;5.70;72.80
7666;DHT22;3875;46.562;4.898;2023-03-01T16:03:40;5.70;72.60
7666;DHT22;3875;46.562;4.898;2023-03-01T16:06:09;5.70;72.70
7666;DHT22;3875;46.562;4.898;2023-03-01T16:08:35;5.60;72.90
7666;DHT22;3875;46.562;4.898;2023-03-01T16:11:01;5.60;73.30
7666;DHT22;3875;46.562;4.898;2023-03-01T16:13:30;5.60;72.70
7666;DHT22;3875;46.562;4.898;2023-03-01T16:15:57;5.50;73.00
7666;DHT22;3875;46.562;4.898;2023-03-01T16:18:22;5.50;73.10
7666;DHT22;3875;46.562;4.898;2023-03-01T16:20:48;5.60;73.40
7666;DHT22;3875;46.562;4.898;2023-03-01T16:23:14;5.60;73.50
7666;DHT22;3875;46.562;4.898;2023-03-01T16:25:40;5.50;73.00
7666;DHT22;3875;46.562;4.898;2023-03-01T16:28:06;5.50;73.50
7666;DHT22;3875;46.562;4.898;2023-03-01T16:30:34;5.50;73.40
7666;DHT22;3875;46.562;4.898;2023-03-01T16:33:00;5.50;73.40
7666;DHT22;3875;46.562;4.898;2023-03-01T16:35:26;5.50;73.60
7666;DHT22;3875;46.562;4.898;2023-03-01T16:37:52;5.40;73.50
7666;DHT22;3875;46.562;4.898;2023-03-01T16:40:25;5.40;73.70
7666;DHT22;3875;46.562;4.898;2023-03-01T16:42:52;5.40;73.70
7666;DHT22;3875;46.562;4.898;2023-03-01T16:45:18;5.40;73.60
7666;DHT22;3875;46.562;4.898;2023-03-01T16:47:44;5.40;73.70
7666;DHT22;3875;46.562;4.898;2023-03-01T16:50:10;5.40;73.70
7666;DHT22;3875;46.562;4.898;2023-03-01T16:52:36;5.40;73.80
7666;DHT22;3875;46.562;4.898;2023-03-01T16:55:03;5.40;73.90
7666;DHT22;3875;46.562;4.898;2023-03-01T16:57:30;5.30;73.80
7666;DHT22;3875;46.562;4.898;2023-03-01T16:59:55;5.30;74.10
7666;DHT22;3875;46.562;4.898;2023-03-01T17:02:21;5.30;73.90
7666;DHT22;3875;46.562;4.898;2023-03-01T17:04:54;5.40;74.00
7666;DHT22;3875;46.562;4.898;2023-03-01T17:07:21;5.40;74.20
7666;DHT22;3875;46.562;4.898;2023-03-01T17:09:47;5.40;74.00
7666;DHT22;3875;46.562;4.898;2023-03-01T17:12:14;5.40;74.00
7666;DHT22;3875;46.562;4.898;2023-03-01T17:14:40;5.40;74.00
7666;DHT22;3875;46.562;4.898;2023-03-01T17:17:10;5.30;73.80
7666;DHT22;3875;46.562;4.898;2023-03-01T17:19:37;5.30;73.60
7666;DHT22;3875;46.562;4.898;2023-03-01T17:22:09;5.30;73.80
7666;DHT22;3875;46.562;4.898;2023-03-01T17:24:38;5.30;73.80
7666;DHT22;3875;46.562;4.898;2023-03-01T17:27:05;5.30;73.90
7666;DHT22;3875;46.562;4.898;2023-03-01T17:29:31;5.30;73.70
7666;DHT22;3875;46.562;4.898;2023-03-01T17:31:56;5.30;73.70
7666;DHT22;3875;46.562;4.898;2023-03-01T17:34:23;5.30;73.70
7666;DHT22;3875;46.562;4.898;2023-03-01T17:36:49;5.30;73.80
7666;DHT22;3875;46.562;4.898;2023-03-01T17:39:19;5.20;73.60
7666;DHT22;3875;46.562;4.898;2023-03-01T17:41:53;5.20;73.60
7666;DHT22;3875;46.562;4.898;2023-03-01T17:44:18;5.20;73.40
7666;DHT22;3875;46.562;4.898;2023-03-01T17:46:44;5.20;73.70
7666;DHT22;3875;46.562;4.898;2023-03-01T17:49:10;5.20;73.50
7666;DHT22;3875;46.562;4.898;2023-03-01T17:51:36;5.10;73.60
7666;DHT22;3875;46.562;4.898;2023-03-01T17:54:02;5.10;73.70
7666;DHT22;3875;46.562;4.898;2023-03-01T17:56:28;5.10;74.00
7666;DHT22;3875;46.562;4.898;2023-03-01T17:58:54;5.10;74.10
7666;DHT22;3875;46.562;4.898;2023-03-01T18:01:21;5.10;74.20
7666;DHT22;3875;46.562;4.898;2023-03-01T18:03:50;5.10;74.00
7666;DHT22;3875;46.562;4.898;2023-03-01T18:06:21;5.10;73.90
7666;DHT22;3875;46.562;4.898;2023-03-01T18:08:47;5.00;74.00
7666;DHT22;3875;46.562;4.898;2023-03-01T18:11:18;5.00;74.10
7666;DHT22;3875;46.562;4.898;2023-03-01T18:13:45;5.10;74.20
7666;DHT22;3875;46.562;4.898;2023-03-01T18:16:14;5.00;74.20
7666;DHT22;3875;46.562;4.898;2023-03-01T18:18:40;5.00;74.20
7666;DHT22;3875;46.562;4.898;2023-03-01T18:21:07;5.00;74.30
7666;DHT22;3875;46.562;4.898;2023-03-01T18:23:34;4.90;74.40
7666;DHT22;3875;46.562;4.898;2023-03-01T18:26:06;4.90;74.40
7666;DHT22;3875;46.562;4.898;2023-03-01T18:28:33;4.90;74.50
7666;DHT22;3875;46.562;4.898;2023-03-01T18:31:01;4.80;74.50
7666;DHT22;3875;46.562;4.898;2023-03-01T18:33:28;4.80;74.60
7666;DHT22;3875;46.562;4.898;2023-03-01T18:35:54;4.80;74.70
7666;DHT22;3875;46.562;4.898;2023-03-01T18:38:20;4.80;74.80
7666;DHT22;3875;46.562;4.898;2023-03-01T18:40:46;4.80;74.80
7666;DHT22;3875;46.562;4.898;2023-03-01T18:43:12;4.80;74.90